Terminal Aerodrome Forecast
Issued by NWS Cheyenne, WY

Home | Current Version | Previous Version | Text Only | Print | Product List | Glossary On
Versions: 1 2 3 4 5 6 7 8 9 10 11 12 13 14 15 16 17 18 19 20 21 22 23 24 25
000
FTUS45 KCYS 042320
TAFCYS
TAF
KCYS 042320Z 0500/0524 30007KT P6SM VCTS BKN080CB
      TEMPO 0500/0502 VRB18G30KT P6SM -TSRA BKN060CB
     FM050300 27008KT P6SM VCSH BKN100
     FM051500 30010G20KT P6SM SCT100=

USA.gov is the U.S. government's official web portal to all federal, state and local government web resources and services.